Time;durP1;ratioP1;P1;durP2;ratioP2;P2;SDS_P1;SDS_P2;PMS_P1;PMS_P2;Temp;Humidity;BMP_temperature;BMP_pressure;BME280_temperature;BME280_humidity;BME280_pressure;Samples;Min_cycle;Max_cycle;Signal;HPM_P1;HPM_P2
2022/04/07 00:01:44;;;;;;;1999.90;999.90;;;10.60;99.90;;;;;;5080521;28;20456;-70
2022/04/07 00:04:11;;;;;;;1999.90;999.90;;;10.60;99.90;;;;;;5093640;28;20965;-71
2022/04/07 00:06:38;;;;;;;1999.90;999.90;;;10.60;99.90;;;;;;5092343;28;20996;-70
2022/04/07 00:09:05;;;;;;;1999.90;999.90;;;10.50;99.90;;;;;;5092628;28;20436;-71
2022/04/07 00:11:32;;;;;;;1999.90;999.90;;;10.60;99.90;;;;;;5092117;28;20444;-69
2022/04/07 00:13:59;;;;;;;1999.90;999.90;;;10.60;99.90;;;;;;5092887;28;20445;-73
2022/04/07 00:16:26;;;;;;;1999.90;999.90;;;10.60;99.90;;;;;;5110566;22;20499;-67
2022/04/07 00:18:54;;;;;;;1999.90;999.90;;;10.70;99.90;;;;;;5076527;28;20447;-66
2022/04/07 00:21:25;;;;;;;1999.90;999.90;;;10.70;99.90;;;;;;5089597;28;20436;-66
2022/04/07 00:23:52;;;;;;;1999.90;999.90;;;10.70;99.90;;;;;;5092780;28;20510;-68
2022/04/07 00:26:19;;;;;;;1999.90;999.90;;;10.70;99.90;;;;;;5092327;28;20513;-68
2022/04/07 00:28:45;;;;;;;1999.90;999.90;;;10.80;99.90;;;;;;5092379;28;20478;-68
2022/04/07 00:31:12;;;;;;;1999.90;999.90;;;10.80;99.90;;;;;;5091978;28;20449;-68
2022/04/07 00:33:39;;;;;;;1999.90;999.90;;;10.80;99.90;;;;;;5092978;28;20457;-68
2022/04/07 00:36:07;;;;;;;1999.90;999.90;;;10.80;99.90;;;;;;5093252;28;20978;-68
2022/04/07 00:38:34;;;;;;;1999.90;999.90;;;10.80;99.90;;;;;;5092100;28;20452;-68
2022/04/07 00:41:00;;;;;;;1999.90;999.90;;;10.90;99.90;;;;;;5095275;28;20444;-68
2022/04/07 00:43:31;;;;;;;1999.90;999.90;;;10.90;99.90;;;;;;5095378;28;20467;-68
2022/04/07 00:45:58;;;;;;;1999.90;999.90;;;10.80;99.90;;;;;;5075628;28;20481;-68
2022/04/07 00:48:24;;;;;;;1999.90;999.90;;;10.80;99.90;;;;;;5078309;28;20498;-67
2022/04/07 00:50:51;;;;;;;1999.90;999.90;;;10.70;99.90;;;;;;5092126;28;20445;-66
2022/04/07 00:53:19;;;;;;;1999.90;999.90;;;10.60;99.90;;;;;;5091977;28;20441;-66
2022/04/07 00:55:46;;;;;;;1999.90;999.90;;;10.60;99.90;;;;;;5091754;28;20472;-65
2022/04/07 00:58:14;;;;;;;1999.90;999.90;;;10.60;99.90;;;;;;5091529;28;20453;-66
2022/04/07 01:00:41;;;;;;;1999.90;999.90;;;10.60;99.90;;;;;;5091399;28;20802;-66
2022/04/07 01:03:09;;;;;;;1999.90;999.90;;;10.60;99.90;;;;;;5092196;28;20457;-66
2022/04/07 01:05:36;;;;;;;1999.90;999.90;;;10.50;99.90;;;;;;5115265;28;20457;-68
2022/04/07 01:08:02;;;;;;;1999.90;999.90;;;10.40;99.90;;;;;;5113216;28;20476;-69
2022/04/07 01:10:30;;;;;;;1999.90;999.90;;;10.40;99.90;;;;;;5113740;28;20466;-66
2022/04/07 01:12:57;;;;;;;1999.90;999.90;;;10.40;99.90;;;;;;5112306;28;20423;-66
2022/04/07 01:15:24;;;;;;;1999.90;999.90;;;10.40;99.90;;;;;;5111254;28;20480;-67
2022/04/07 01:17:50;;;;;;;1999.90;999.90;;;10.40;99.90;;;;;;5101489;28;20436;-67
2022/04/07 01:20:17;;;;;;;1999.90;999.90;;;10.40;99.90;;;;;;5093410;28;20456;-65
2022/04/07 01:22:46;;;;;;;1999.90;999.90;;;10.30;99.90;;;;;;5091663;28;20502;-66
2022/04/07 01:25:14;;;;;;;1999.90;999.90;;;10.30;99.90;;;;;;5091877;28;20522;-66
2022/04/07 01:27:41;;;;;;;1999.90;999.90;;;10.40;99.90;;;;;;5092223;28;20602;-66
2022/04/07 01:30:09;;;;;;;1999.90;999.90;;;10.40;99.90;;;;;;5092067;28;20502;-66
2022/04/07 01:32:40;;;;;;;1999.90;999.90;;;10.40;99.90;;;;;;5092645;28;20441;-66
2022/04/07 01:35:08;;;;;;;1999.90;999.90;;;10.40;99.90;;;;;;5091547;28;20518;-65
2022/04/07 01:37:36;;;;;;;1999.90;999.90;;;10.50;99.90;;;;;;5090936;28;20441;-66
2022/04/07 01:40:04;;;;;;;1999.90;999.90;;;10.50;99.90;;;;;;5090795;28;20449;-65
2022/04/07 01:42:34;;;;;;;1999.90;999.90;;;10.70;99.90;;;;;;5091071;28;20476;-66
2022/04/07 01:45:03;;;;;;;1999.90;999.90;;;10.60;99.90;;;;;;5091439;28;20517;-66
2022/04/07 01:47:31;;;;;;;1999.90;999.90;;;10.60;99.90;;;;;;5090202;28;21059;-66
2022/04/07 01:50:06;;;;;;;1999.90;999.90;;;10.60;99.90;;;;;;5091744;28;20518;-66
2022/04/07 01:52:34;;;;;;;1999.90;999.90;;;10.60;99.90;;;;;;5090716;28;20482;-67
2022/04/07 01:55:02;;;;;;;1999.90;999.90;;;10.60;99.90;;;;;;5090345;28;20990;-67
2022/04/07 01:57:29;;;;;;;1999.90;999.90;;;10.70;99.90;;;;;;5090269;28;20474;-67
2022/04/07 01:59:59;;;;;;;1999.90;999.90;;;10.70;99.90;;;;;;5090937;28;20452;-65
2022/04/07 02:02:25;;;;;;;1999.90;999.90;;;10.70;99.90;;;;;;5091072;28;20449;-66
2022/04/07 02:04:53;;;;;;;1999.90;999.90;;;10.80;99.90;;;;;;5091868;28;20542;-66
2022/04/07 02:07:20;;;;;;;1999.90;999.90;;;10.80;99.90;;;;;;5089608;28;20522;-66
2022/04/07 02:09:47;;;;;;;1999.90;999.90;;;10.80;99.90;;;;;;5090315;28;20494;-66
2022/04/07 02:12:14;;;;;;;1999.90;999.90;;;10.80;99.90;;;;;;5092043;28;20441;-66
2022/04/07 02:14:41;;;;;;;1999.90;999.90;;;10.90;99.90;;;;;;5094357;28;20498;-66
2022/04/07 02:17:09;;;;;;;1999.90;999.90;;;10.80;99.90;;;;;;5094751;28;20929;-66
2022/04/07 02:19:35;;;;;;;1999.90;999.90;;;10.70;99.90;;;;;;5095189;28;20497;-66
2022/04/07 02:22:02;;;;;;;1999.90;999.90;;;10.70;99.90;;;;;;5094395;28;20501;-67
2022/04/07 02:24:30;;;;;;;1999.90;999.90;;;10.60;99.90;;;;;;5094328;28;20537;-66
2022/04/07 02:26:57;;;;;;;1999.90;999.90;;;10.60;99.90;;;;;;5095455;28;20476;-66
2022/04/07 02:29:24;;;;;;;1999.90;999.90;;;10.60;99.90;;;;;;5095925;28;20452;-66
2022/04/07 02:31:51;;;;;;;1999.90;999.90;;;10.50;99.90;;;;;;5096128;28;20498;-65
2022/04/07 02:34:19;;;;;;;1999.90;999.90;;;10.40;99.90;;;;;;5095666;28;20961;-66
2022/04/07 02:36:45;;;;;;;1999.90;999.90;;;10.50;99.90;;;;;;5094293;28;20472;-66
2022/04/07 02:39:12;;;;;;;1999.90;999.90;;;10.50;99.90;;;;;;5094176;28;20506;-67
2022/04/07 02:41:38;;;;;;;1999.90;999.90;;;10.60;99.90;;;;;;5093894;28;20945;-65
2022/04/07 02:44:06;;;;;;;1999.90;999.90;;;10.60;99.90;;;;;;5094323;28;20448;-66
2022/04/07 02:46:32;;;;;;;1999.90;999.90;;;10.70;99.90;;;;;;5093658;28;21275;-66
2022/04/07 02:48:59;;;;;;;1999.90;999.90;;;10.70;99.90;;;;;;5094619;28;20448;-66
2022/04/07 02:51:27;;;;;;;1999.90;999.90;;;10.80;99.90;;;;;;5093964;28;20490;-66
2022/04/07 02:53:57;;;;;;;1999.90;999.90;;;10.80;99.90;;;;;;5073349;28;20453;-65
2022/04/07 02:56:24;;;;;;;1999.90;999.90;;;10.80;99.90;;;;;;5084139;28;20474;-66
2022/04/07 02:58:51;;;;;;;1999.90;999.90;;;10.80;99.90;;;;;;5095474;28;20505;-66
2022/04/07 03:01:18;;;;;;;1999.90;999.90;;;10.90;99.90;;;;;;5095179;28;20437;-67
2022/04/07 03:03:45;;;;;;;1999.90;999.90;;;10.90;99.90;;;;;;5094392;28;20957;-66
2022/04/07 03:06:11;;;;;;;1999.90;999.90;;;11.00;99.90;;;;;;5094149;28;20464;-66
2022/04/07 03:08:39;;;;;;;1999.90;999.90;;;10.90;99.90;;;;;;5092585;28;21041;-66
2022/04/07 03:11:08;;;;;;;1999.90;999.90;;;10.80;99.90;;;;;;5093581;28;20452;-65
2022/04/07 03:13:37;;;;;;;1999.90;999.90;;;10.90;99.90;;;;;;5092606;28;20459;-66
2022/04/07 03:16:03;;;;;;;1999.90;999.90;;;10.80;99.90;;;;;;5092594;28;20487;-66
2022/04/07 03:18:30;;;;;;;1999.90;999.90;;;10.80;99.90;;;;;;5093765;28;20486;-65
2022/04/07 03:20:57;;;;;;;1999.90;999.90;;;10.80;99.90;;;;;;5094008;28;20448;-65
2022/04/07 03:23:24;;;;;;;1999.90;999.90;;;10.90;99.90;;;;;;5092812;28;20497;-66
2022/04/07 03:25:52;;;;;;;1999.90;999.90;;;10.90;99.90;;;;;;5092354;28;20473;-66
2022/04/07 03:28:19;;;;;;;1999.90;999.90;;;10.90;99.90;;;;;;5093074;28;21405;-66
2022/04/07 03:30:46;;;;;;;1999.90;999.90;;;10.80;99.90;;;;;;5093292;28;20449;-66
2022/04/07 03:33:13;;;;;;;1999.90;999.90;;;10.80;99.90;;;;;;5094514;28;20445;-67
2022/04/07 03:35:39;;;;;;;1999.90;999.90;;;10.80;99.90;;;;;;5093778;28;20477;-68
2022/04/07 03:38:07;;;;;;;1999.90;999.90;;;10.80;99.90;;;;;;5093063;28;20448;-68
2022/04/07 03:40:34;;;;;;;1999.90;999.90;;;10.80;99.90;;;;;;5093319;28;20456;-66
2022/04/07 03:43:02;;;;;;;1999.90;999.90;;;10.80;99.90;;;;;;5092510;28;20832;-68
2022/04/07 03:45:29;;;;;;;1999.90;999.90;;;10.80;99.90;;;;;;5092074;28;20525;-64
2022/04/07 03:47:56;;;;;;;1999.90;999.90;;;10.70;99.90;;;;;;5092417;28;20997;-66
2022/04/07 03:50:23;;;;;;;1999.90;999.90;;;10.70;99.90;;;;;;5093631;28;20449;-68
2022/04/07 03:52:50;;;;;;;1999.90;999.90;;;10.70;99.90;;;;;;5093058;28;20453;-69
2022/04/07 03:55:16;;;;;;;1999.90;999.90;;;10.70;99.90;;;;;;5091798;28;20561;-67
2022/04/07 03:57:43;;;;;;;1999.90;999.90;;;10.70;99.90;;;;;;5092178;28;20850;-66
2022/04/07 04:00:12;;;;;;;1999.90;999.90;;;10.60;99.90;;;;;;5092113;28;20445;-66
2022/04/07 04:02:39;;;;;;;1999.90;999.90;;;10.60;99.90;;;;;;5092139;28;20505;-66
2022/04/07 04:05:06;;;;;;;1999.90;999.90;;;10.50;99.90;;;;;;5093101;28;20522;-66
2022/04/07 04:07:32;;;;;;;1999.90;999.90;;;10.40;99.90;;;;;;5091316;28;20480;-66
2022/04/07 04:10:01;;;;;;;1999.90;999.90;;;10.50;99.90;;;;;;5091898;28;20950;-66
2022/04/07 04:12:27;;;;;;;1999.90;999.90;;;10.50;99.90;;;;;;5091735;28;20934;-66
2022/04/07 04:14:54;;;;;;;1999.90;999.90;;;10.60;99.90;;;;;;5091073;28;20537;-66
2022/04/07 04:17:22;;;;;;;1999.90;999.90;;;10.70;99.90;;;;;;5091789;28;20449;-66
2022/04/07 04:19:48;;;;;;;1999.90;999.90;;;10.70;99.90;;;;;;5093182;28;20449;-67
2022/04/07 04:22:15;;;;;;;1999.90;999.90;;;10.70;99.90;;;;;;5092193;28;21221;-66
2022/04/07 04:24:42;;;;;;;1999.90;999.90;;;10.60;99.90;;;;;;5091669;28;20453;-67
2022/04/07 04:27:08;;;;;;;1999.90;999.90;;;10.60;99.90;;;;;;5091386;28;20484;-66
2022/04/07 04:29:35;;;;;;;1999.90;999.90;;;10.50;99.90;;;;;;5096045;28;20952;-66
2022/04/07 04:32:02;;;;;;;1999.90;999.90;;;10.50;99.90;;;;;;5101672;28;20816;-66
2022/04/07 04:34:30;;;;;;;1999.90;999.90;;;10.50;99.90;;;;;;5092937;28;20506;-67
2022/04/07 04:36:56;;;;;;;1999.90;999.90;;;10.50;99.90;;;;;;5091557;28;20449;-66
2022/04/07 04:39:24;;;;;;;1999.90;999.90;;;10.50;99.90;;;;;;5093094;28;20506;-67
2022/04/07 04:41:50;;;;;;;1999.90;999.90;;;10.50;99.90;;;;;;5093444;28;20444;-66
2022/04/07 04:44:17;;;;;;;1999.90;999.90;;;10.50;99.90;;;;;;5093632;28;20452;-67
2022/04/07 04:46:44;;;;;;;1999.90;999.90;;;10.60;99.90;;;;;;5093125;28;20468;-66
2022/04/07 04:49:10;;;;;;;1999.90;999.90;;;10.60;99.90;;;;;;5098457;28;20506;-67
2022/04/07 04:51:38;;;;;;;1999.90;999.90;;;10.50;99.90;;;;;;5108115;28;20466;-65
2022/04/07 04:54:05;;;;;;;1999.90;999.90;;;10.60;99.90;;;;;;5105660;28;20456;-66
2022/04/07 04:56:33;;;;;;;1999.90;999.90;;;10.60;99.90;;;;;;5107338;28;20463;-66
2022/04/07 04:58:59;;;;;;;1999.90;999.90;;;10.60;99.90;;;;;;5109776;28;20448;-67
2022/04/07 05:01:26;;;;;;;1999.90;999.90;;;10.50;99.90;;;;;;5105410;28;20445;-66
2022/04/07 05:03:53;;;;;;;1999.90;999.90;;;10.50;99.90;;;;;;5103989;28;20444;-66
2022/04/07 05:06:19;;;;;;;1999.90;999.90;;;10.50;99.90;;;;;;5093158;28;20460;-65
2022/04/07 05:08:47;;;;;;;1999.90;999.90;;;10.50;99.90;;;;;;5072839;28;20481;-66
2022/04/07 05:11:14;;;;;;;1999.90;999.90;;;10.50;99.90;;;;;;5072984;28;20445;-66
2022/04/07 05:13:40;;;;;;;1999.90;999.90;;;10.40;99.90;;;;;;5092073;28;20452;-67
2022/04/07 05:16:08;;;;;;;1999.90;999.90;;;10.40;99.90;;;;;;5092657;28;20472;-66
2022/04/07 05:18:34;;;;;;;1999.90;999.90;;;10.40;99.90;;;;;;5092517;28;20445;-65
2022/04/07 05:21:01;;;;;;;1999.90;999.90;;;10.40;99.90;;;;;;5093218;28;20493;-66
2022/04/07 05:23:28;;;;;;;1999.90;999.90;;;10.50;99.90;;;;;;5092223;28;20449;-67
2022/04/07 05:25:56;;;;;;;1999.90;999.90;;;10.40;99.90;;;;;;5092097;28;20484;-66
2022/04/07 05:28:23;;;;;;;1999.90;999.90;;;10.30;99.90;;;;;;5091903;28;20881;-66
2022/04/07 05:30:50;;;;;;;1999.90;999.90;;;10.30;99.90;;;;;;5092361;28;20474;-66
2022/04/07 05:33:17;;;;;;;1999.90;999.90;;;10.30;99.90;;;;;;5092111;28;20451;-66
2022/04/07 05:35:44;;;;;;;1999.90;999.90;;;10.30;99.90;;;;;;5091860;28;20476;-66
2022/04/07 05:38:10;;;;;;;1999.90;999.90;;;10.20;99.90;;;;;;5092174;28;20509;-66
2022/04/07 05:40:37;;;;;;;1999.90;999.90;;;10.30;99.90;;;;;;5090957;28;20448;-65
2022/04/07 05:43:05;;;;;;;1999.90;999.90;;;10.20;99.90;;;;;;5090952;28;20858;-66
2022/04/07 05:45:34;;;;;;;1999.90;999.90;;;10.30;99.90;;;;;;5091088;28;20464;-66
2022/04/07 05:48:01;;;;;;;1999.90;999.90;;;10.30;99.90;;;;;;5093267;28;20480;-66
2022/04/07 05:50:28;;;;;;;1999.90;999.90;;;10.30;99.90;;;;;;5093369;28;21008;-65
2022/04/07 05:52:54;;;;;;;1999.90;999.90;;;10.40;99.90;;;;;;5090410;28;20452;-66
2022/04/07 05:55:21;;;;;;;1999.90;999.90;;;10.40;99.90;;;;;;5093816;28;21072;-62
2022/04/07 05:57:49;;;;;;;1999.90;999.90;;;10.50;99.90;;;;;;5085154;28;20874;-65
2022/04/07 06:00:18;;;;;;;1999.90;999.90;;;10.60;99.90;;;;;;5076113;28;20950;-65
2022/04/07 06:02:46;;;;;;;1999.90;999.90;;;10.70;99.90;;;;;;5076515;28;20829;-65
2022/04/07 06:05:16;;;;;;;1999.90;999.90;;;10.70;99.90;;;;;;5094898;28;20484;-66
2022/04/07 06:07:43;;;;;;;1999.90;999.90;;;10.80;99.90;;;;;;5095170;28;21011;-66
2022/04/07 06:10:10;;;;;;;1999.90;999.90;;;10.80;99.90;;;;;;5095890;28;20510;-66
2022/04/07 06:12:38;;;;;;;1999.90;999.90;;;10.60;99.90;;;;;;5103598;28;20444;-66
2022/04/07 06:15:06;;;;;;;1999.90;999.90;;;10.60;99.90;;;;;;5104677;28;20560;-66
2022/04/07 06:17:35;;;;;;;1999.90;999.90;;;10.60;99.90;;;;;;5103767;28;20448;-66
2022/04/07 06:20:02;;;;;;;1999.90;999.90;;;10.80;99.90;;;;;;5100200;28;20502;-66
2022/04/07 06:22:29;;;;;;;1999.90;999.90;;;10.80;99.90;;;;;;5095202;28;20451;-67
2022/04/07 06:24:55;;;;;;;1999.90;999.90;;;10.80;99.90;;;;;;5095315;28;20468;-66
2022/04/07 06:27:22;;;;;;;1999.90;999.90;;;10.80;99.90;;;;;;5094104;28;20444;-68
2022/04/07 06:29:49;;;;;;;1999.90;999.90;;;10.80;99.90;;;;;;5082484;28;20533;-65
2022/04/07 06:32:16;;;;;;;1999.90;999.90;;;10.70;99.90;;;;;;5093993;28;20498;-64
2022/04/07 06:34:44;;;;;;;1999.90;999.90;;;10.70;99.90;;;;;;5094786;28;20866;-65
2022/04/07 06:37:10;;;;;;;1999.90;999.90;;;10.70;99.90;;;;;;5095171;28;20457;-66
2022/04/07 06:39:37;;;;;;;1999.90;999.90;;;10.80;99.90;;;;;;5095527;28;20498;-65
2022/04/07 06:42:04;;;;;;;1999.90;999.90;;;10.80;99.90;;;;;;5095213;28;20452;-65
2022/04/07 06:44:30;;;;;;;1999.90;999.90;;;10.90;99.90;;;;;;5094882;28;20448;-66
2022/04/07 06:46:57;;;;;;;1999.90;999.90;;;11.20;99.90;;;;;;5094856;28;20444;-65
2022/04/07 06:49:24;;;;;;;1999.90;999.90;;;11.50;99.90;;;;;;5094867;28;20472;-66
2022/04/07 06:51:52;;;;;;;1999.90;999.90;;;11.80;99.90;;;;;;5094771;28;20499;-67
2022/04/07 06:54:18;;;;;;;1999.90;999.90;;;11.90;99.90;;;;;;5095100;28;20497;-66
2022/04/07 06:56:45;;;;;;;1999.90;999.90;;;11.80;99.90;;;;;;5094857;28;20480;-67
2022/04/07 06:59:12;;;;;;;1999.90;999.90;;;12.00;99.90;;;;;;5094417;28;20869;-66
2022/04/07 07:01:39;;;;;;;1999.90;999.90;;;12.00;99.90;;;;;;5094919;28;20452;-66
2022/04/07 07:04:06;;;;;;;1999.90;999.90;;;12.10;99.90;;;;;;5094687;28;20444;-65
2022/04/07 07:06:32;;;;;;;1999.90;999.90;;;12.30;99.90;;;;;;5093991;28;20468;-66
2022/04/07 07:09:00;;;;;;;1999.90;999.90;;;12.20;99.90;;;;;;5084869;28;20473;-67
2022/04/07 07:11:27;;;;;;;1999.90;999.90;;;12.40;99.90;;;;;;5080773;28;20502;-65
2022/04/07 07:13:54;;;;;;;1999.90;999.90;;;12.50;99.90;;;;;;5086644;28;20448;-66
2022/04/07 07:16:20;;;;;;;1999.90;999.90;;;12.40;99.90;;;;;;5074225;28;20898;-67
2022/04/07 07:18:47;;;;;;;1999.90;999.90;;;12.40;99.90;;;;;;5088534;28;20502;-67
2022/04/07 07:21:14;;;;;;;1999.90;999.90;;;12.20;99.90;;;;;;5091108;28;20498;-66
2022/04/07 07:23:40;;;;;;;1999.90;999.90;;;12.00;99.90;;;;;;5093963;28;20436;-66
2022/04/07 07:26:08;;;;;;;1999.90;999.90;;;11.80;99.90;;;;;;5093913;28;20472;-67
2022/04/07 07:28:35;;;;;;;1999.90;999.90;;;11.60;99.90;;;;;;5086021;28;20488;-66
2022/04/07 07:31:02;;;;;;;1999.90;999.90;;;11.50;99.90;;;;;;5093468;28;20966;-66
2022/04/07 07:33:28;;;;;;;1999.90;999.90;;;11.60;99.90;;;;;;5094033;28;20449;-66
2022/04/07 07:35:55;;;;;;;1999.90;999.90;;;11.60;99.90;;;;;;5093332;28;21051;-67
2022/04/07 07:38:22;;;;;;;1999.90;999.90;;;11.50;99.90;;;;;;5091941;28;20433;-64
2022/04/07 07:40:49;;;;;;;1999.90;999.90;;;11.60;99.90;;;;;;5092568;28;20954;-66
2022/04/07 07:43:17;;;;;;;1999.90;999.90;;;11.70;99.90;;;;;;5092836;28;20445;-66
2022/04/07 07:45:44;;;;;;;1999.90;999.90;;;11.60;99.90;;;;;;5094359;28;20464;-66
2022/04/07 07:48:12;;;;;;;1999.90;999.90;;;11.60;99.90;;;;;;5093811;28;20456;-66
2022/04/07 07:50:41;;;;;;;1999.90;999.90;;;11.70;99.90;;;;;;5092625;28;20471;-66
2022/04/07 07:53:09;;;;;;;1999.90;999.90;;;11.70;99.90;;;;;;5093016;28;20441;-66
2022/04/07 07:55:37;;;;;;;1999.90;999.90;;;11.80;99.90;;;;;;5092979;28;20491;-66
2022/04/07 07:58:04;;;;;;;1999.90;999.90;;;11.90;99.90;;;;;;5094033;28;20444;-67
2022/04/07 08:00:32;;;;;;;1999.90;999.90;;;11.90;99.90;;;;;;5092976;28;20868;-68
2022/04/07 08:02:59;;;;;;;1999.90;999.90;;;11.90;99.90;;;;;;5073162;28;20491;-66
2022/04/07 08:05:25;;;;;;;1999.90;999.90;;;11.90;99.90;;;;;;5092367;28;20477;-66
2022/04/07 08:07:52;;;;;;;1999.90;999.90;;;11.90;99.90;;;;;;5092920;28;20808;-66
2022/04/07 08:10:19;;;;;;;1999.90;999.90;;;11.90;99.90;;;;;;5092255;28;20526;-65
2022/04/07 08:12:45;;;;;;;1999.90;999.90;;;12.00;99.90;;;;;;5088933;28;20449;-67
2022/04/07 08:15:12;;;;;;;1999.90;999.90;;;11.90;99.90;;;;;;5093151;28;20476;-66
2022/04/07 08:17:40;;;;;;;1999.90;999.90;;;12.00;99.90;;;;;;5092719;28;20570;-68
2022/04/07 08:20:08;;;;;;;1999.90;999.90;;;12.20;99.90;;;;;;5091849;28;20945;-68
2022/04/07 08:22:35;;;;;;;1999.90;999.90;;;12.50;99.90;;;;;;5093040;28;20561;-66
2022/04/07 08:25:02;;;;;;;1999.90;999.90;;;13.00;99.90;;;;;;5093715;28;20498;-65
2022/04/07 08:27:29;;;;;;;1999.90;999.90;;;13.20;99.90;;;;;;5093414;28;20455;-67
2022/04/07 08:29:55;;;;;;;1999.90;999.90;;;13.10;99.90;;;;;;5092386;28;20472;-64
2022/04/07 08:32:22;;;;;;;1999.90;999.90;;;13.30;99.90;;;;;;5092047;28;20445;-66
2022/04/07 08:34:50;;;;;;;1999.90;999.90;;;13.10;99.90;;;;;;5092852;28;20468;-66
2022/04/07 08:37:17;;;;;;;1999.90;999.90;;;13.40;99.90;;;;;;5093009;28;20441;-66
2022/04/07 08:39:43;;;;;;;1999.90;999.90;;;13.50;99.90;;;;;;5092919;28;20448;-67
2022/04/07 08:42:10;;;;;;;1999.90;999.90;;;13.60;99.90;;;;;;5092156;28;20448;-64
2022/04/07 08:44:37;;;;;;;1999.90;999.90;;;13.90;99.90;;;;;;5086433;28;20437;-67
2022/04/07 08:47:04;;;;;;;1999.90;999.90;;;13.80;99.90;;;;;;5087568;28;20436;-70
2022/04/07 08:49:32;;;;;;;1999.90;999.90;;;14.10;99.90;;;;;;5082890;28;20476;-65
2022/04/07 08:52:00;;;;;;;1999.90;999.90;;;14.50;99.90;;;;;;5072571;28;20456;-64
2022/04/07 08:54:27;;;;;;;1999.90;999.90;;;14.10;99.90;;;;;;5072396;28;20800;-65
2022/04/07 08:56:53;;;;;;;1999.90;999.90;;;14.00;99.90;;;;;;5079812;28;20525;-66
2022/04/07 08:59:20;;;;;;;1999.90;999.90;;;14.00;99.90;;;;;;5092590;28;20444;-65
2022/04/07 09:01:47;;;;;;;1999.90;999.90;;;14.10;99.90;;;;;;5081385;28;21008;-63
2022/04/07 09:04:14;;;;;;;1999.90;999.90;;;14.30;99.90;;;;;;5072513;28;20499;-66
2022/04/07 09:06:41;;;;;;;1999.90;999.90;;;13.90;99.90;;;;;;5072308;28;20522;-67
2022/04/07 09:09:16;;;;;;;1999.90;999.90;;;13.90;99.90;;;;;;5083414;28;20541;-64
2022/04/07 09:11:44;;;;;;;1999.90;999.90;;;13.90;99.90;;;;;;5092706;28;20447;-64
2022/04/07 09:14:13;;;;;;;1999.90;999.90;;;14.00;99.90;;;;;;5092552;28;20850;-65
2022/04/07 09:16:41;;;;;;;1999.90;999.90;;;14.00;99.90;;;;;;5092233;28;20476;-65
2022/04/07 09:19:09;;;;;;;1999.90;999.90;;;13.70;99.90;;;;;;5092156;28;20448;-65
2022/04/07 09:21:36;;;;;;;1999.90;999.90;;;14.00;99.90;;;;;;5092375;28;20506;-66
2022/04/07 09:24:07;;;;;;;1999.90;999.90;;;13.90;99.90;;;;;;5091759;28;20897;-64
2022/04/07 09:26:39;;;;;;;1999.90;999.90;;;14.20;99.90;;;;;;5092594;28;20472;-65
2022/04/07 09:29:09;;;;;;;1999.90;999.90;;;14.40;99.90;;;;;;5091937;28;20476;-65
2022/04/07 09:31:39;;;;;;;1999.90;999.90;;;14.60;99.90;;;;;;5088387;28;20449;-64
2022/04/07 09:34:06;;;;;;;1999.90;999.90;;;14.50;99.90;;;;;;5091538;28;20571;-66
2022/04/07 09:36:33;;;;;;;1999.90;999.90;;;14.20;99.90;;;;;;5091571;28;20473;-67
2022/04/07 09:39:00;;;;;;;1999.90;999.90;;;14.00;99.90;;;;;;5091514;28;20445;-65
2022/04/07 09:41:29;;;;;;;1999.90;999.90;;;14.20;99.90;;;;;;5091909;28;20460;-64
2022/04/07 09:43:59;;;;;;;1999.90;999.90;;;14.40;99.90;;;;;;5091250;28;20873;-67
2022/04/07 09:46:27;;;;;;;1999.90;999.90;;;14.40;99.90;;;;;;5091896;28;20997;-66
2022/04/07 09:49:05;;;;;;;1999.90;999.90;;;14.10;99.90;;;;;;5092261;28;20902;-66
2022/04/07 09:51:38;;;;;;;1999.90;999.90;;;13.60;99.90;;;;;;5092525;28;20493;-64
2022/04/07 09:54:09;;;;;;;1999.90;999.90;;;13.30;99.90;;;;;;5092197;28;20485;-67
2022/04/07 09:56:36;;;;;;;1999.90;999.90;;;13.50;99.90;;;;;;5093062;28;20502;-68
2022/04/07 09:59:06;;;;;;;1999.90;999.90;;;13.00;99.90;;;;;;5092937;28;20436;-67
2022/04/07 10:01:33;;;;;;;1999.90;999.90;;;12.70;99.90;;;;;;5092140;28;20452;-65
2022/04/07 10:04:02;;;;;;;1999.90;999.90;;;12.90;99.90;;;;;;5093141;28;21002;-67
2022/04/07 10:06:29;;;;;;;1999.90;999.90;;;12.90;99.90;;;;;;5093159;28;20494;-66
2022/04/07 10:08:59;;;;;;;1999.90;999.90;;;12.80;99.90;;;;;;5093244;28;21051;-66
2022/04/07 10:11:27;;;;;;;1999.90;999.90;;;13.10;99.90;;;;;;5093236;28;20490;-67
2022/04/07 10:13:56;;;;;;;1999.90;999.90;;;12.90;99.90;;;;;;5093021;28;20440;-67
2022/04/07 10:16:26;;;;;;;1999.90;999.90;;;12.80;99.90;;;;;;5096407;28;20480;-69
2022/04/07 10:18:58;;;;;;;1999.90;999.90;;;13.00;99.90;;;;;;5113248;28;20444;-67
2022/04/07 10:21:39;;;;;;;1999.90;999.90;;;12.70;99.90;;;;;;5112663;28;20429;-67
2022/04/07 10:24:25;;;;;;;1999.90;999.90;;;12.70;99.90;;;;;;5108308;28;20474;-67
2022/04/07 10:26:52;;;;;;;1999.90;999.90;;;12.40;99.90;;;;;;5109423;28;20489;-67
2022/04/07 10:29:22;;;;;;;1999.90;999.90;;;12.20;99.90;;;;;;5108361;28;20476;-68
2022/04/07 10:32:21;;;;;;;1999.90;999.90;;;11.90;99.90;;;;;;5096343;28;20441;-66
2022/04/07 10:34:56;;;;;;;1999.90;999.90;;;11.60;99.90;;;;;;5097980;28;20471;-66
2022/04/07 10:37:40;;;;;;;1999.90;999.90;;;11.70;99.90;;;;;;5096834;28;20803;-67
2022/04/07 10:40:36;;;;;;;1999.90;999.90;;;11.80;99.90;;;;;;5096750;28;20540;-67
2022/04/07 10:43:20;;;;;;;1999.90;999.90;;;11.90;99.90;;;;;;5096195;28;20454;-67
2022/04/07 10:45:49;;;;;;;1999.90;999.90;;;12.10;99.90;;;;;;5098202;28;20474;-68
2022/04/07 10:48:25;;;;;;;1999.90;999.90;;;12.50;99.90;;;;;;5099158;28;20440;-67
2022/04/07 10:50:55;;;;;;;1999.90;999.90;;;12.70;99.90;;;;;;5096912;28;20908;-67
2022/04/07 10:53:24;;;;;;;1999.90;999.90;;;13.10;99.90;;;;;;5098359;28;20456;-67
2022/04/07 10:55:55;;;;;;;1999.90;999.90;;;13.00;99.90;;;;;;5098179;28;20496;-66
2022/04/07 10:58:37;;;;;;;1999.90;999.90;;;12.90;99.90;;;;;;5097209;28;21074;-66
2022/04/07 11:01:04;;;;;;;1999.90;999.90;;;12.10;99.90;;;;;;5098101;28;20421;-68
2022/04/07 11:03:33;;;;;;;1999.90;999.90;;;11.80;99.90;;;;;;5095988;28;20452;-68
2022/04/07 11:06:01;;;;;;;1999.90;999.90;;;11.60;99.90;;;;;;5095525;28;20480;-66
2022/04/07 11:08:30;;;;;;;1999.90;999.90;;;11.60;99.90;;;;;;5096065;28;20506;-67
2022/04/07 11:10:57;;;;;;;1999.90;999.90;;;11.80;99.90;;;;;;5097637;28;20484;-67
2022/04/07 11:13:42;;;;;;;1999.90;999.90;;;12.10;99.90;;;;;;5096805;28;20493;-67
2022/04/07 11:16:16;;;;;;;1999.90;999.90;;;12.50;99.90;;;;;;5096610;28;20479;-67
2022/04/07 11:19:04;;;;;;;1999.90;999.90;;;13.00;99.90;;;;;;5097277;28;20465;-67
2022/04/07 11:21:45;;;;;;;1999.90;999.90;;;13.10;99.90;;;;;;5097057;28;20441;-66
2022/04/07 11:24:22;;;;;;;1999.90;999.90;;;13.10;99.90;;;;;;5091975;28;20505;-67
2022/04/07 11:26:48;;;;;;;1999.90;999.90;;;12.20;99.90;;;;;;5075974;28;20469;-68
2022/04/07 11:29:30;;;;;;;1999.90;999.90;;;12.30;99.90;;;;;;5083809;28;20456;-67
2022/04/07 11:32:06;;;;;;;1999.90;999.90;;;12.60;99.90;;;;;;5096520;28;20501;-68
2022/04/07 11:34:51;;;;;;;1999.90;999.90;;;12.90;99.90;;;;;;5086749;28;20444;-67
2022/04/07 11:37:19;;;;;;;1999.90;999.90;;;13.10;99.90;;;;;;5096563;28;20448;-68
2022/04/07 11:39:47;;;;;;;1999.90;999.90;;;13.20;99.90;;;;;;5095975;28;20449;-67
2022/04/07 11:42:16;;;;;;;1999.90;999.90;;;13.30;99.90;;;;;;5094751;28;20453;-68
2022/04/07 11:44:44;;;;;;;1999.90;999.90;;;13.20;99.90;;;;;;5094666;28;20471;-67
2022/04/07 11:47:23;;;;;;;1999.90;999.90;;;12.90;99.90;;;;;;5096376;28;20452;-67
2022/04/07 11:49:51;;;;;;;1999.90;999.90;;;13.10;99.90;;;;;;5081117;28;20984;-68
2022/04/07 11:52:22;;;;;;;1999.90;999.90;;;13.20;99.90;;;;;;5096234;28;20896;-67
2022/04/07 11:54:51;;;;;;;1999.90;999.90;;;13.10;99.90;;;;;;5096879;28;20544;-67
2022/04/07 11:57:17;;;;;;;1999.90;999.90;;;13.00;99.90;;;;;;5097749;28;20440;-68
2022/04/07 11:59:44;;;;;;;1999.90;999.90;;;12.90;99.90;;;;;;5099497;28;20441;-68
2022/04/07 12:02:11;;;;;;;1999.90;999.90;;;12.80;99.90;;;;;;5098826;28;20445;-69
2022/04/07 12:04:40;;;;;;;1999.90;999.90;;;12.40;99.90;;;;;;5099507;28;20474;-67